Kocelovice, Czech Republic
Current Conditions -  °F | °C
As of 2:00 PM on Friday 28 Nov 2014 (Local Time) from LKLN Reporting Station
Overcast Overcast  
Wind Chill: 28°   Ceiling: 900
Heat Index: 34°   Visibility: 6mi
Dew Point: 34°   Wind: 7mph
Humidity: 100%   Direction: 100°E
Pressure: 29.97"   Gusts: NA
Location:  49.47°N, 13.83°E
Report Text: LKLN 281200Z AUTO 10006KT 9999 OVC009 01/01 Q1015
Loading
Personal Weather Stations






























Interactive Weather Map New forecast layout! Learn more

10-Day Weather Forecast

Advertisements
Track Severe Weather on mobile